Mehtap Bayraktar — TCPB — position and weather

sailwx.info

Track history (hours):
 
Tides and Currents Weather Stations Pressure Air Temp Water Temp Dewpoint Dewpoint Depression Visibility Wind Speed Wind Dir Waves Ship Positions

Mehtap Bayraktar

Last reported at 2016-Jul-27 14:04 UTC. Time now 2016-Jul-27 21:13 UTC.
Position N 46°05' E 036°48'.

Length 114 m; draft 5 m.

Type: Cargo ship. MMSI: 271000578.

Date/timePositionNaut miles runAvg speedWind from/ knotsBaromVisibWave heightAir tempDewpointWater temp
2016-Jul-27 14:04N 46°05' E 036°48'611.2
2016-Jul-27 13:33N 45°59' E 036°48'2210.9
2016-Jul-27 11:33N 45°37' E 036°45'1110.8
2016-Jul-27 10:33N 45°27' E 036°41'9 9.1
2016-Jul-27 09:33N 45°20' E 036°34'6 6.4
2016-Jul-27 08:33N 45°15' E 036°28'9 9.2
2016-Jul-27 07:33N 45°06' E 036°30'70 9.7
2016-Jul-27 00:19N 44°20' E 035°16'1911.0
2016-Jul-26 22:33N 44°12' E 034°51'1110.8
2016-Jul-26 21:33N 44°07' E 034°38'1110.8
2016-Jul-26 20:33N 44°02' E 034°24'  
Track history (hours):
 
Tides and Currents Weather Stations Pressure Air Temp Water Temp Dewpoint Dewpoint Depression Visibility Wind Speed Wind Dir Waves Ship Positions

Mehtap Bayraktar

Last reported at 2016-Jul-27 14:04 UTC. Time now 2016-Jul-27 21:13 UTC.
Position N 46°05' E 036°48'.

Length 114 m; draft 5 m.

Type: Cargo ship. MMSI: 271000578.

Date/timePositionNaut miles runAvg speedWind from/ knotsBaromVisibWave heightAir tempDewpointWater temp
2016-Jul-27 14:04N 46°05' E 036°48'611.2
2016-Jul-27 13:33N 45°59' E 036°48'2210.9
2016-Jul-27 11:33N 45°37' E 036°45'1110.8
2016-Jul-27 10:33N 45°27' E 036°41'9 9.1
2016-Jul-27 09:33N 45°20' E 036°34'6 6.4
2016-Jul-27 08:33N 45°15' E 036°28'9 9.2
2016-Jul-27 07:33N 45°06' E 036°30'70 9.7
2016-Jul-27 00:19N 44°20' E 035°16'1911.0
2016-Jul-26 22:33N 44°12' E 034°51'1110.8
2016-Jul-26 21:33N 44°07' E 034°38'1110.8
2016-Jul-26 20:33N 44°02' E 034°24'  

Dump ship's entire track history